KBJJ/BJJ METAR and TAF weather

Enter ICAO airport designator
Station Type Date Time Source
KBJJ METAR 2019/10/20 18:56 UTC NOAA

KBJJ 201856Z AUTO 00000KT 10SM CLR 22/09 A2989 RMK AO2 SLP121 T02170094


Station Type Date Time Source
KBJJ Decoded METAR 2019/10/20 18:56 UTC NOAA

WOOSTER WAYNE COUNTY AIRPORT, OH, United States (KBJJ) 40-52N 81-53W 343M
Oct 20, 2019 - 02:56 PM EDT / 2019.10.20 1856 UTC
Wind: Calm:0
Visibility: 10 mile(s):0
Sky conditions: clear
Temperature: 71.1 F (21.7 C)
Dew Point: 48.9 F (9.4 C)
Relative Humidity: 45%
Pressure (altimeter): 29.89 in. Hg (1012 hPa)
ob: KBJJ 201856Z AUTO 00000KT 10SM CLR 22/09 A2989 RMK AO2 SLP121 T02170094
cycle: 19

Station Type Date Time Source
KBJJ TAF UTC NOAA

Error!

Example: see airport list